createdAt,value
2023-03-28T00:00:35.748Z,0.80
2023-03-28T00:01:35.743Z,0.90
2023-03-28T00:02:35.773Z,0.70
2023-03-28T00:03:37.866Z,0.80
2023-03-28T00:04:35.684Z,0.70
2023-03-28T00:05:35.813Z,0.70
2023-03-28T00:06:35.701Z,0.90
2023-03-28T00:07:35.686Z,0.70
2023-03-28T00:08:35.637Z,0.90
2023-03-28T00:09:35.705Z,0.90
2023-03-28T00:10:35.637Z,0.90
2023-03-28T00:11:35.620Z,0.70
2023-03-28T00:12:35.805Z,0.80
2023-03-28T00:13:35.906Z,0.80
2023-03-28T00:14:35.683Z,0.80
2023-03-28T00:15:35.697Z,0.70
2023-03-28T00:16:35.607Z,0.80
2023-03-28T00:17:35.585Z,0.80
2023-03-28T00:18:35.544Z,0.90
2023-03-28T00:19:35.573Z,0.80
2023-03-28T00:20:35.467Z,0.90
2023-03-28T00:21:35.513Z,0.90
2023-03-28T00:22:35.462Z,0.70
2023-03-28T00:23:35.492Z,0.90
2023-03-28T00:24:35.433Z,1.00
2023-03-28T00:25:35.514Z,0.90
2023-03-28T00:26:35.433Z,0.80
2023-03-28T00:27:35.428Z,0.90
2023-03-28T00:28:35.373Z,0.90
2023-03-28T00:29:35.443Z,0.80
2023-03-28T00:30:35.367Z,0.90
2023-03-28T00:31:35.484Z,0.90
2023-03-28T00:32:35.368Z,0.90
2023-03-28T00:33:35.374Z,0.80
2023-03-28T00:34:35.295Z,1.00
2023-03-28T00:35:35.409Z,0.90
2023-03-28T00:36:35.297Z,1.00
2023-03-28T00:37:35.300Z,0.90
2023-03-28T00:38:35.253Z,1.00
2023-03-28T00:39:35.305Z,0.80
2023-03-28T00:40:35.209Z,0.80
2023-03-28T00:41:35.342Z,0.90
2023-03-28T00:42:35.200Z,0.90
2023-03-28T00:43:35.237Z,1.00
2023-03-28T00:44:35.164Z,0.70
2023-03-28T00:45:35.260Z,1.10
2023-03-28T00:46:35.153Z,1.00
2023-03-28T00:47:35.178Z,0.90
2023-03-28T00:48:35.129Z,1.00
2023-03-28T00:49:35.188Z,0.80
2023-03-28T00:50:35.079Z,1.00
2023-03-28T00:51:35.223Z,0.90
2023-03-28T00:52:35.053Z,0.90
2023-03-28T00:53:35.100Z,0.80
2023-03-28T00:54:35.053Z,1.00
2023-03-28T00:55:35.113Z,1.00
2023-03-28T00:56:35.059Z,0.90
2023-03-28T00:57:35.028Z,0.90
2023-03-28T00:58:34.980Z,1.10
2023-03-28T00:59:35.048Z,0.80
2023-03-28T01:00:35.118Z,1.00
2023-03-28T01:01:35.069Z,0.90
2023-03-28T01:02:35.037Z,1.00
2023-03-28T01:03:35.138Z,1.00
2023-03-28T01:04:34.908Z,1.00
2023-03-28T01:05:34.992Z,1.00
2023-03-28T01:06:34.882Z,1.00
2023-03-28T01:07:34.906Z,1.40
2023-03-28T01:08:34.846Z,1.00
2023-03-28T01:09:34.902Z,1.10
2023-03-28T01:10:34.821Z,0.90
2023-03-28T01:11:34.964Z,0.90
2023-03-28T01:12:34.810Z,0.90
2023-03-28T01:13:34.843Z,0.90
2023-03-28T01:14:34.766Z,1.00
2023-03-28T01:15:34.851Z,0.90
2023-03-28T01:16:34.816Z,1.00
2023-03-28T01:17:34.868Z,0.90
2023-03-28T01:18:34.816Z,1.10
2023-03-28T01:19:55.775Z,1.10
2023-03-28T01:20:34.688Z,1.00
2023-03-28T01:21:55.777Z,1.10
2023-03-28T01:22:34.665Z,1.20
2023-03-28T01:23:34.698Z,1.10
2023-03-28T01:24:34.657Z,0.90
2023-03-28T01:25:34.708Z,1.20
2023-03-28T01:26:34.607Z,1.00
2023-03-28T01:27:34.630Z,0.90
2023-03-28T01:28:34.587Z,1.20
2023-03-28T01:29:34.643Z,1.00
2023-03-28T01:30:34.588Z,1.30
2023-03-28T01:31:34.721Z,1.40
2023-03-28T01:32:34.605Z,1.10
2023-03-28T01:33:34.566Z,1.10
2023-03-28T01:34:34.509Z,0.90
2023-03-28T01:35:34.648Z,1.20
2023-03-28T01:36:35.399Z,1.10
2023-03-28T01:37:34.496Z,1.10
2023-03-28T01:38:34.482Z,1.20
2023-03-28T01:39:34.505Z,1.00
2023-03-28T01:40:34.434Z,1.10
2023-03-28T01:41:34.520Z,1.10
2023-03-28T01:42:34.443Z,1.20
2023-03-28T01:43:34.442Z,0.90
2023-03-28T01:44:34.384Z,1.10
2023-03-28T01:45:34.467Z,1.20
2023-03-28T01:46:34.371Z,1.10
2023-03-28T01:47:34.455Z,1.20
2023-03-28T01:48:34.349Z,1.00
2023-03-28T01:49:34.386Z,1.10
2023-03-28T01:50:34.296Z,1.20
2023-03-28T01:51:35.325Z,1.10
2023-03-28T01:52:34.271Z,1.10
2023-03-28T01:53:34.303Z,1.30
2023-03-28T01:54:34.276Z,1.10
2023-03-28T01:55:34.315Z,1.20
2023-03-28T01:56:35.421Z,1.20
2023-03-28T01:57:34.265Z,1.20
2023-03-28T01:58:34.189Z,1.20
2023-03-28T01:59:34.243Z,1.20
2023-03-28T02:00:34.180Z,1.10
2023-03-28T02:01:34.221Z,1.20
2023-03-28T02:02:34.231Z,1.10
2023-03-28T02:03:34.204Z,1.10
2023-03-28T02:04:34.112Z,1.00
2023-03-28T02:05:34.193Z,1.10
2023-03-28T02:06:34.098Z,1.10
2023-03-28T02:07:34.199Z,1.40
2023-03-28T02:08:34.067Z,1.10
2023-03-28T02:09:34.111Z,1.00
2023-03-28T02:10:34.032Z,1.30
2023-03-28T02:11:34.134Z,1.00
2023-03-28T02:12:34.029Z,1.10
2023-03-28T02:13:34.052Z,1.20
2023-03-28T02:14:33.987Z,1.00
2023-03-28T02:15:34.055Z,1.50
2023-03-28T02:16:34.113Z,1.20
2023-03-28T02:17:33.993Z,1.10
2023-03-28T02:18:33.967Z,1.30
2023-03-28T02:19:33.983Z,1.20
2023-03-28T02:20:33.915Z,1.10
2023-03-28T02:21:33.994Z,1.10
2023-03-28T02:22:33.892Z,1.20
2023-03-28T02:23:33.905Z,1.10
2023-03-28T02:24:33.891Z,1.10
2023-03-28T02:25:33.937Z,1.00
2023-03-28T02:26:33.836Z,1.00
2023-03-28T02:27:33.848Z,1.20
2023-03-28T02:28:33.819Z,1.20
2023-03-28T02:29:33.850Z,1.10
2023-03-28T02:30:33.822Z,1.30
2023-03-28T02:31:33.905Z,1.10
2023-03-28T02:32:33.820Z,1.00
2023-03-28T02:33:54.793Z,1.10
2023-03-28T02:34:33.747Z,1.10
2023-03-28T02:35:34.888Z,1.00
2023-03-28T02:36:33.717Z,1.00
2023-03-28T02:37:33.705Z,1.00
2023-03-28T02:38:33.677Z,0.90
2023-03-28T02:39:33.722Z,0.90
2023-03-28T02:40:33.673Z,1.00
2023-03-28T02:41:33.748Z,1.00
2023-03-28T02:42:33.646Z,1.10
2023-03-28T02:43:34.699Z,1.00
2023-03-28T02:44:33.604Z,0.90
2023-03-28T02:45:33.708Z,1.10
2023-03-28T02:46:33.618Z,1.10
2023-03-28T02:47:33.614Z,1.10
2023-03-28T02:48:33.583Z,1.00
2023-03-28T02:49:43.793Z,1.20
2023-03-28T02:50:34.548Z,1.20
2023-03-28T02:51:33.617Z,1.10
2023-03-28T02:52:33.494Z,1.00
2023-03-28T02:53:33.524Z,1.00
2023-03-28T02:54:33.485Z,1.00
2023-03-28T02:55:33.537Z,1.00
2023-03-28T02:56:33.454Z,1.10
2023-03-28T02:57:33.547Z,0.90
2023-03-28T02:58:33.416Z,0.90
2023-03-28T02:59:33.474Z,0.80
2023-03-28T03:00:33.414Z,0.90
2023-03-28T03:01:33.514Z,1.00
2023-03-28T03:02:33.416Z,0.90
2023-03-28T03:03:33.408Z,0.90
2023-03-28T03:04:33.347Z,0.90
2023-03-28T03:05:33.412Z,1.00
2023-03-28T03:06:33.334Z,0.90
2023-03-28T03:07:33.414Z,0.90
2023-03-28T03:08:33.288Z,0.90
2023-03-28T03:09:33.352Z,1.00
2023-03-28T03:10:33.268Z,1.00
2023-03-28T03:11:33.344Z,0.70
2023-03-28T03:12:33.264Z,1.10
2023-03-28T03:13:33.264Z,1.20
2023-03-28T03:14:33.245Z,1.00
2023-03-28T03:15:33.311Z,1.00
2023-03-28T03:16:33.239Z,0.90
2023-03-28T03:17:33.317Z,1.10
2023-03-28T03:18:33.195Z,1.00
2023-03-28T03:19:33.246Z,1.00
2023-03-28T03:20:33.144Z,0.70
2023-03-28T03:21:33.211Z,0.90
2023-03-28T03:22:33.128Z,0.80
2023-03-28T03:23:34.162Z,1.10
2023-03-28T03:24:33.132Z,0.90
2023-03-28T03:25:33.247Z,0.90
2023-03-28T03:26:33.081Z,1.00
2023-03-28T03:27:33.190Z,1.00
2023-03-28T03:28:33.021Z,0.80
2023-03-28T03:29:38.931Z,0.80
2023-03-28T03:30:34.018Z,0.80
2023-03-28T03:31:33.096Z,0.80
2023-03-28T03:32:33.458Z,0.90
2023-03-28T03:33:33.011Z,0.90
2023-03-28T03:34:32.961Z,0.80
2023-03-28T03:35:33.019Z,1.00
2023-03-28T03:36:32.949Z,1.10
2023-03-28T03:37:33.020Z,0.80
2023-03-28T03:38:32.908Z,0.70
2023-03-28T03:39:32.927Z,0.90
2023-03-28T03:40:33.080Z,0.80
2023-03-28T03:41:32.947Z,0.90
2023-03-28T03:42:32.861Z,1.00
2023-03-28T03:43:33.886Z,0.70
2023-03-28T03:44:32.826Z,0.70
2023-03-28T03:45:32.890Z,0.80
2023-03-28T03:46:32.815Z,1.00
2023-03-28T03:47:33.835Z,0.90
2023-03-28T03:48:32.794Z,0.80
2023-03-28T03:49:32.804Z,1.00
2023-03-28T03:50:32.736Z,0.80
2023-03-28T03:51:32.842Z,0.80
2023-03-28T03:52:32.725Z,0.80
2023-03-28T03:53:32.723Z,0.70
2023-03-28T03:54:32.712Z,0.90
2023-03-28T03:55:32.747Z,0.90
2023-03-28T03:56:32.690Z,0.80
2023-03-28T03:57:32.753Z,0.80
2023-03-28T03:58:32.632Z,0.90
2023-03-28T03:59:32.800Z,0.90
2023-03-28T04:00:32.720Z,0.80
2023-03-28T04:01:32.681Z,1.20
2023-03-28T04:02:32.698Z,0.70
2023-03-28T04:03:32.645Z,0.80
2023-03-28T04:04:32.585Z,0.80
2023-03-28T04:05:32.604Z,0.80
2023-03-28T04:06:32.553Z,0.60
2023-03-28T04:07:32.648Z,0.60
2023-03-28T04:08:32.501Z,0.80
2023-03-28T04:09:32.554Z,0.80
2023-03-28T04:10:32.495Z,0.80
2023-03-28T04:11:32.571Z,0.60
2023-03-28T04:12:32.471Z,0.70
2023-03-28T04:13:32.457Z,0.80
2023-03-28T04:14:32.418Z,0.90
2023-03-28T04:15:32.473Z,0.80
2023-03-28T04:16:40.818Z,0.60
2023-03-28T04:17:33.438Z,1.00
2023-03-28T04:18:32.392Z,0.70
2023-03-28T04:19:32.374Z,0.70
2023-03-28T04:20:32.428Z,0.80
2023-03-28T04:21:32.342Z,0.70
2023-03-28T04:22:32.430Z,0.70
2023-03-28T04:23:33.919Z,0.60
2023-03-28T04:24:32.334Z,0.70
2023-03-28T04:25:32.379Z,0.70
2023-03-28T04:26:32.339Z,0.60
2023-03-28T04:27:32.268Z,0.70
2023-03-28T04:28:32.264Z,0.80
2023-03-28T04:29:32.280Z,0.60
2023-03-28T04:30:32.428Z,0.90
2023-03-28T04:31:32.517Z,0.80
2023-03-28T04:32:33.253Z,0.60
2023-03-28T04:33:32.180Z,0.70
2023-03-28T04:34:32.238Z,0.60
2023-03-28T04:35:32.231Z,0.50
2023-03-28T04:36:32.231Z,0.60
2023-03-28T04:37:32.140Z,0.70
2023-03-28T04:38:32.256Z,0.60
2023-03-28T04:39:32.385Z,0.60
2023-03-28T04:40:32.148Z,0.60
2023-03-28T04:41:32.283Z,0.60
2023-03-28T04:42:32.160Z,0.70
2023-03-28T04:43:32.053Z,0.60
2023-03-28T04:44:32.100Z,0.60
2023-03-28T04:45:32.034Z,0.70
2023-03-28T04:46:32.093Z,0.50
2023-03-28T04:47:32.066Z,0.70
2023-03-28T04:48:32.097Z,0.50
2023-03-28T04:49:32.042Z,0.70
2023-03-28T04:50:33.470Z,0.60
2023-03-28T04:51:31.949Z,0.40
2023-03-28T04:52:32.051Z,0.90
2023-03-28T04:53:32.042Z,0.50
2023-03-28T04:54:32.089Z,0.70
2023-03-28T04:55:31.982Z,0.60
2023-03-28T04:56:32.013Z,0.60
2023-03-28T04:57:31.873Z,0.50
2023-03-28T04:58:31.981Z,0.50
2023-03-28T04:59:32.079Z,0.40
2023-03-28T05:00:52.893Z,0.50
2023-03-28T05:01:32.128Z,0.40
2023-03-28T05:02:31.957Z,0.30
2023-03-28T05:03:31.953Z,0.40
2023-03-28T05:04:31.811Z,0.40
2023-03-28T05:05:31.882Z,0.50
2023-03-28T05:06:31.924Z,0.50
2023-03-28T05:07:31.774Z,0.60
2023-03-28T05:08:31.864Z,0.70
2023-03-28T05:09:31.727Z,0.70
2023-03-28T05:10:31.807Z,0.60
2023-03-28T05:11:31.794Z,0.60
2023-03-28T05:12:31.769Z,0.80
2023-03-28T05:13:31.670Z,0.50
2023-03-28T05:14:31.680Z,0.60
2023-03-28T05:15:31.643Z,0.80
2023-03-28T05:16:31.708Z,0.80
2023-03-28T05:17:31.640Z,0.60
2023-03-28T05:18:31.723Z,0.80
2023-03-28T05:19:31.585Z,0.60
2023-03-28T05:20:31.627Z,0.90
2023-03-28T05:21:31.566Z,2.10
2023-03-28T05:22:31.648Z,0.80
2023-03-28T05:23:31.565Z,0.80
2023-03-28T05:24:31.604Z,1.40
2023-03-28T05:25:31.501Z,0.90
2023-03-28T05:26:31.575Z,0.90
2023-03-28T05:27:31.502Z,0.60
2023-03-28T05:28:31.578Z,0.80
2023-03-28T05:29:31.468Z,0.80
2023-03-28T05:30:32.526Z,1.00
2023-03-28T05:31:31.449Z,0.70
2023-03-28T05:32:31.518Z,1.20
2023-03-28T05:33:31.393Z,0.80
2023-03-28T05:34:31.409Z,0.70
2023-03-28T05:35:31.428Z,1.10
2023-03-28T05:36:52.442Z,0.80
2023-03-28T05:37:31.338Z,1.00
2023-03-28T05:38:31.449Z,0.70
2023-03-28T05:39:31.327Z,0.90
2023-03-28T05:40:31.353Z,1.40
2023-03-28T05:41:31.326Z,0.80
2023-03-28T05:42:31.378Z,1.50
2023-03-28T05:43:31.277Z,0.80
2023-03-28T05:44:32.595Z,0.80
2023-03-28T05:45:31.275Z,0.80
2023-03-28T05:46:31.300Z,0.90
2023-03-28T05:47:31.263Z,1.20
2023-03-28T05:48:31.308Z,1.20
2023-03-28T05:49:31.320Z,1.30
2023-03-28T05:50:31.229Z,1.50
2023-03-28T05:51:31.192Z,1.20
2023-03-28T05:52:31.243Z,0.80
2023-03-28T05:53:31.158Z,1.10
2023-03-28T05:54:31.155Z,0.60
2023-03-28T05:55:31.551Z,0.80
2023-03-28T05:56:31.160Z,1.30
2023-03-28T05:57:31.084Z,0.90
2023-03-28T05:58:31.195Z,0.90
2023-03-28T05:59:31.078Z,0.70
2023-03-28T06:00:31.086Z,0.70
2023-03-28T06:01:31.033Z,0.70
2023-03-28T06:02:31.111Z,0.60
2023-03-28T06:03:31.087Z,0.80
2023-03-28T06:04:31.138Z,0.80
2023-03-28T06:05:31.001Z,0.60
2023-03-28T06:06:31.054Z,1.00
2023-03-28T06:07:41.452Z,0.80
2023-03-28T06:08:32.121Z,0.60
2023-03-28T06:09:30.973Z,0.70
2023-03-28T06:10:30.915Z,0.60
2023-03-28T06:11:31.017Z,0.70
2023-03-28T06:12:30.883Z,0.60
2023-03-28T06:13:31.984Z,0.60
2023-03-28T06:14:30.863Z,0.80
2023-03-28T06:15:30.890Z,0.70
2023-03-28T06:16:31.477Z,0.70
2023-03-28T06:17:31.202Z,0.90
2023-03-28T06:18:30.807Z,0.80
2023-03-28T06:19:30.865Z,0.80
2023-03-28T06:20:30.802Z,0.70
2023-03-28T06:21:30.912Z,0.70
2023-03-28T06:22:30.760Z,0.60
2023-03-28T06:23:30.802Z,0.80
2023-03-28T06:24:30.749Z,0.70
2023-03-28T06:25:30.767Z,0.60
2023-03-28T06:26:30.710Z,0.70
2023-03-28T06:27:32.827Z,0.60
2023-03-28T06:28:30.709Z,0.80
2023-03-28T06:29:30.802Z,0.60
2023-03-28T06:30:30.732Z,0.60
2023-03-28T06:31:30.950Z,0.60
2023-03-28T06:32:30.760Z,0.80
2023-03-28T06:33:30.855Z,0.70
2023-03-28T06:34:30.809Z,0.60
2023-03-28T06:35:30.692Z,0.50
2023-03-28T06:36:30.570Z,0.70
2023-03-28T06:37:30.643Z,0.80
2023-03-28T06:38:30.609Z,0.50
2023-03-28T06:39:30.656Z,0.70
2023-03-28T06:40:30.547Z,0.70
2023-03-28T06:41:30.679Z,0.70
2023-03-28T06:42:30.497Z,0.60
2023-03-28T06:43:30.617Z,0.70
2023-03-28T06:44:30.493Z,0.60
2023-03-28T06:45:30.503Z,0.70
2023-03-28T06:46:30.507Z,0.90
2023-03-28T06:47:31.408Z,0.70
2023-03-28T06:48:30.884Z,0.60
2023-03-28T06:49:30.418Z,0.60
2023-03-28T06:50:30.392Z,0.60
2023-03-28T06:51:30.444Z,0.60
2023-03-28T06:52:30.355Z,0.60
2023-03-28T06:53:30.402Z,0.60
2023-03-28T06:54:30.346Z,0.70
2023-03-28T06:55:30.378Z,0.70
2023-03-28T06:56:30.300Z,0.60
2023-03-28T06:57:51.454Z,0.80
2023-03-28T06:58:30.272Z,0.70
2023-03-28T06:59:30.338Z,0.70
2023-03-28T07:00:30.276Z,0.80
2023-03-28T07:01:30.567Z,0.70
2023-03-28T07:02:30.290Z,0.50
2023-03-28T07:03:30.435Z,0.60
2023-03-28T07:04:30.239Z,0.40
2023-03-28T07:05:30.277Z,0.50
2023-03-28T07:06:30.326Z,0.60
2023-03-28T07:07:30.276Z,0.50
2023-03-28T07:08:30.166Z,0.50
2023-03-28T07:09:30.262Z,0.80
2023-03-28T07:10:30.145Z,0.50
2023-03-28T07:11:30.369Z,0.50
2023-03-28T07:12:30.101Z,0.50
2023-03-28T07:13:30.202Z,0.40
2023-03-28T07:14:30.097Z,0.50
2023-03-28T07:15:30.187Z,0.60
2023-03-28T07:16:30.102Z,0.50
2023-03-28T07:17:30.218Z,0.50
2023-03-28T07:18:30.218Z,0.60
2023-03-28T07:19:30.215Z,0.50
2023-03-28T07:20:30.082Z,0.60
2023-03-28T07:21:30.198Z,0.70
2023-03-28T07:22:29.983Z,0.60
2023-03-28T07:23:31.029Z,0.60
2023-03-28T07:24:29.943Z,0.50
2023-03-28T07:25:29.957Z,0.60
2023-03-28T07:26:29.931Z,0.50
2023-03-28T07:27:32.069Z,0.50
2023-03-28T07:28:29.900Z,0.50
2023-03-28T07:29:29.965Z,0.40
2023-03-28T07:30:29.890Z,0.50
2023-03-28T07:31:30.001Z,0.40
2023-03-28T07:32:38.703Z,0.50
2023-03-28T07:33:36.300Z,0.50
2023-03-28T07:34:30.883Z,0.60
2023-03-28T07:35:29.852Z,0.50
2023-03-28T07:36:29.799Z,0.50
2023-03-28T07:37:29.855Z,0.90
2023-03-28T07:38:29.775Z,0.60
2023-03-28T07:39:29.897Z,0.60
2023-03-28T07:40:29.775Z,0.40
2023-03-28T07:41:29.790Z,0.50
2023-03-28T07:42:29.718Z,0.60
2023-03-28T07:43:29.788Z,0.60
2023-03-28T07:44:29.701Z,0.50
2023-03-28T07:45:29.723Z,0.40
2023-03-28T07:46:29.700Z,0.50
2023-03-28T07:47:29.758Z,0.50
2023-03-28T07:48:29.655Z,0.70
2023-03-28T07:49:29.746Z,0.50
2023-03-28T07:50:29.639Z,0.60
2023-03-28T07:51:29.682Z,0.70
2023-03-28T07:52:29.823Z,0.80
2023-03-28T07:53:29.755Z,0.70
2023-03-28T07:54:29.696Z,0.60
2023-03-28T07:55:29.576Z,0.60
2023-03-28T07:56:29.577Z,0.50
2023-03-28T07:57:29.595Z,0.70
2023-03-28T07:58:29.522Z,0.50
2023-03-28T07:59:29.802Z,0.60
2023-03-28T08:00:29.508Z,0.70
2023-03-28T08:01:30.576Z,0.70
2023-03-28T08:02:29.711Z,0.60
2023-03-28T08:03:29.681Z,0.40
2023-03-28T08:04:29.533Z,0.70
2023-03-28T08:05:29.506Z,0.40
2023-03-28T08:06:32.379Z,0.60
2023-03-28T08:07:29.484Z,1.00
2023-03-28T08:08:29.513Z,0.60
2023-03-28T08:09:29.622Z,0.40
2023-03-28T08:10:29.389Z,0.50
2023-03-28T08:11:29.405Z,0.60
2023-03-28T08:12:29.327Z,0.50
2023-03-28T08:13:29.390Z,0.50
2023-03-28T08:14:29.287Z,0.60
2023-03-28T08:15:29.411Z,0.70
2023-03-28T08:16:29.338Z,0.60
2023-03-28T08:17:29.349Z,0.50
2023-03-28T08:18:29.239Z,0.60
2023-03-28T08:19:29.325Z,0.70
2023-03-28T08:20:29.289Z,0.50
2023-03-28T08:21:29.235Z,0.40
2023-03-28T08:22:29.217Z,0.60
2023-03-28T08:23:29.257Z,0.60
2023-03-28T08:24:35.729Z,0.80
2023-03-28T08:25:30.191Z,0.60
2023-03-28T08:26:29.172Z,0.60
2023-03-28T08:27:29.180Z,0.50
2023-03-28T08:28:29.253Z,0.60
2023-03-28T08:29:29.194Z,0.60
2023-03-28T08:30:29.166Z,0.60
2023-03-28T08:31:29.122Z,0.50
2023-03-28T08:32:29.240Z,0.70
2023-03-28T08:33:29.207Z,0.60
2023-03-28T08:34:29.207Z,0.50
2023-03-28T08:35:29.021Z,0.70
2023-03-28T08:36:29.153Z,0.80
2023-03-28T08:37:29.138Z,0.80
2023-03-28T08:38:30.204Z,0.70
2023-03-28T08:39:28.963Z,0.80
2023-03-28T08:40:29.046Z,0.40
2023-03-28T08:41:28.945Z,0.40
2023-03-28T08:42:29.001Z,0.50
2023-03-28T08:43:28.960Z,0.50
2023-03-28T08:44:29.017Z,0.40
2023-03-28T08:45:28.877Z,0.50
2023-03-28T08:46:29.180Z,0.30
2023-03-28T08:47:28.891Z,0.60
2023-03-28T08:48:28.935Z,0.50
2023-03-28T08:49:28.842Z,0.40
2023-03-28T08:50:29.040Z,0.50
2023-03-28T08:51:28.889Z,0.50
2023-03-28T08:52:28.929Z,0.50
2023-03-28T08:53:28.800Z,0.40
2023-03-28T08:54:28.880Z,0.40
2023-03-28T08:55:28.761Z,0.50
2023-03-28T08:56:28.787Z,0.50
2023-03-28T08:57:28.863Z,0.40
2023-03-28T08:58:29.040Z,0.50
2023-03-28T08:59:28.721Z,0.50
2023-03-28T09:00:28.704Z,0.50
2023-03-28T09:01:28.697Z,0.70
2023-03-28T09:02:28.915Z,0.60
2023-03-28T09:03:28.759Z,0.60
2023-03-28T09:04:28.696Z,0.70
2023-03-28T09:05:28.640Z,0.40
2023-03-28T09:06:28.855Z,0.50
2023-03-28T09:07:28.601Z,0.70
2023-03-28T09:08:28.775Z,0.60
2023-03-28T09:09:28.582Z,0.60
2023-03-28T09:10:28.644Z,0.60
2023-03-28T09:11:28.557Z,0.70
2023-03-28T09:12:28.589Z,0.60
2023-03-28T09:13:28.547Z,0.60
2023-03-28T09:14:28.643Z,0.70
2023-03-28T09:15:28.536Z,0.60
2023-03-28T09:16:28.620Z,0.50
2023-03-28T09:17:28.493Z,0.50
2023-03-28T09:18:28.612Z,0.30
2023-03-28T09:19:36.966Z,0.50
2023-03-28T09:20:29.480Z,0.60
2023-03-28T09:21:28.484Z,0.60
2023-03-28T09:22:28.431Z,0.40
2023-03-28T09:23:28.465Z,0.50
2023-03-28T09:24:28.389Z,0.40
2023-03-28T09:25:28.720Z,0.40
2023-03-28T09:26:28.366Z,0.50
2023-03-28T09:27:28.398Z,0.30
2023-03-28T09:28:28.397Z,0.50
2023-03-28T09:29:28.398Z,0.30
2023-03-28T09:30:28.308Z,0.30
2023-03-28T09:31:28.323Z,0.20
2023-03-28T09:32:28.322Z,0.30
2023-03-28T09:33:28.360Z,0.30
2023-03-28T09:34:28.297Z,0.30
2023-03-28T09:35:28.338Z,0.20
2023-03-28T09:36:37.478Z,0.10
2023-03-28T09:37:29.209Z,0.20
2023-03-28T09:38:28.265Z,0.20
2023-03-28T09:39:28.191Z,0.50
2023-03-28T09:40:28.227Z,0.20
2023-03-28T09:41:28.146Z,0.20
2023-03-28T09:42:28.424Z,0.20
2023-03-28T09:43:28.128Z,0.10
2023-03-28T09:44:28.310Z,0.40
2023-03-28T09:45:28.181Z,0.30
2023-03-28T09:46:29.233Z,0.40
2023-03-28T09:47:28.145Z,0.20
2023-03-28T09:48:29.319Z,0.20
2023-03-28T09:49:28.155Z,0.30
2023-03-28T09:50:28.154Z,0.30
2023-03-28T09:51:28.075Z,0.30
2023-03-28T09:52:28.133Z,0.50
2023-03-28T09:53:28.468Z,0.40
2023-03-28T09:54:29.102Z,0.50
2023-03-28T09:55:27.984Z,0.40
2023-03-28T09:56:29.039Z,0.30
2023-03-28T09:57:27.952Z,0.50
2023-03-28T09:58:28.035Z,0.40
2023-03-28T09:59:28.688Z,0.40
2023-03-28T10:00:28.019Z,0.70
2023-03-28T10:01:27.932Z,0.50
2023-03-28T10:02:28.171Z,0.40
2023-03-28T10:03:28.122Z,0.40
2023-03-28T10:04:27.951Z,0.50
2023-03-28T10:05:27.837Z,0.40
2023-03-28T10:06:27.851Z,0.50
2023-03-28T10:07:27.808Z,0.80
2023-03-28T10:08:27.874Z,0.60
2023-03-28T10:09:27.776Z,0.60
2023-03-28T10:10:27.924Z,0.60
2023-03-28T10:11:27.765Z,0.60
2023-03-28T10:12:27.786Z,0.70
2023-03-28T10:13:27.726Z,0.80
2023-03-28T10:14:27.807Z,0.70
2023-03-28T10:15:27.761Z,0.60
2023-03-28T10:16:27.817Z,0.60
2023-03-28T10:17:27.728Z,0.60
2023-03-28T10:18:27.761Z,0.50
2023-03-28T10:19:27.652Z,0.60
2023-03-28T10:20:27.646Z,0.80
2023-03-28T10:21:27.627Z,0.40
2023-03-28T10:22:27.727Z,0.50
2023-03-28T10:23:27.600Z,0.60
2023-03-28T10:24:27.681Z,0.50
2023-03-28T10:25:27.565Z,0.70
2023-03-28T10:26:27.606Z,0.50
2023-03-28T10:27:27.538Z,0.60
2023-03-28T10:28:27.664Z,0.50
2023-03-28T10:29:27.521Z,0.40
2023-03-28T10:30:27.629Z,0.60
2023-03-28T10:31:27.517Z,0.80
2023-03-28T10:32:27.565Z,0.60
2023-03-28T10:33:27.467Z,0.50
2023-03-28T10:34:28.560Z,0.50
2023-03-28T10:35:27.544Z,0.50
2023-03-28T10:36:27.459Z,0.50
2023-03-28T10:37:27.465Z,0.50
2023-03-28T10:38:27.701Z,0.40
2023-03-28T10:39:27.423Z,0.50
2023-03-28T10:40:27.544Z,0.50
2023-03-28T10:41:27.382Z,0.50
2023-03-28T10:42:27.394Z,0.50
2023-03-28T10:43:27.338Z,0.50
2023-03-28T10:44:28.475Z,0.50
2023-03-28T10:45:27.558Z,0.40
2023-03-28T10:46:27.953Z,0.40
2023-03-28T10:47:27.426Z,0.30
2023-03-28T10:48:27.370Z,0.70
2023-03-28T10:49:27.286Z,0.30
2023-03-28T10:50:27.371Z,0.40
2023-03-28T10:51:27.233Z,0.40
2023-03-28T10:52:27.326Z,0.40
2023-03-28T10:53:27.211Z,0.50
2023-03-28T10:54:27.294Z,0.50
2023-03-28T10:55:27.187Z,0.30
2023-03-28T10:56:27.195Z,0.40
2023-03-28T10:57:27.152Z,0.40
2023-03-28T10:58:27.260Z,0.40
2023-03-28T10:59:27.149Z,0.50
2023-03-28T11:00:27.122Z,0.70
2023-03-28T11:01:27.140Z,0.50
2023-03-28T11:02:27.550Z,0.50
2023-03-28T11:03:27.170Z,0.50
2023-03-28T11:04:27.105Z,0.40
2023-03-28T11:05:27.046Z,0.60
2023-03-28T11:06:27.067Z,0.50
2023-03-28T11:07:28.858Z,0.40
2023-03-28T11:08:27.013Z,0.20
2023-03-28T11:09:48.130Z,0.30
2023-03-28T11:10:27.082Z,0.40
2023-03-28T11:11:26.993Z,0.40
2023-03-28T11:12:29.798Z,0.30
2023-03-28T11:13:26.944Z,0.30
2023-03-28T11:14:27.055Z,0.40
2023-03-28T11:15:26.938Z,0.70
2023-03-28T11:16:27.067Z,0.50
2023-03-28T11:17:26.939Z,0.40
2023-03-28T11:18:29.449Z,0.50
2023-03-28T11:19:26.893Z,0.50
2023-03-28T11:20:26.968Z,0.50
2023-03-28T11:21:26.875Z,0.40
2023-03-28T11:22:26.875Z,0.50
2023-03-28T11:23:26.810Z,0.40
2023-03-28T11:24:26.889Z,0.40
2023-03-28T11:25:26.799Z,0.70
2023-03-28T11:26:26.795Z,0.50
2023-03-28T11:27:26.770Z,0.40
2023-03-28T11:28:26.819Z,0.40
2023-03-28T11:29:40.214Z,0.30
2023-03-28T11:30:27.724Z,0.50
2023-03-28T11:31:27.773Z,0.50
2023-03-28T11:32:26.733Z,0.50
2023-03-28T11:33:26.803Z,0.50
2023-03-28T11:34:26.661Z,0.50
2023-03-28T11:35:26.912Z,0.50
2023-03-28T11:36:27.464Z,0.60
2023-03-28T11:37:26.672Z,0.60
2023-03-28T11:38:26.625Z,0.60
2023-03-28T11:39:26.686Z,0.70
2023-03-28T11:40:26.599Z,0.40
2023-03-28T11:41:26.602Z,0.40
2023-03-28T11:42:26.548Z,0.60
2023-03-28T11:43:26.608Z,0.60
2023-03-28T11:44:26.536Z,0.40
2023-03-28T11:45:41.954Z,0.50
2023-03-28T11:46:27.594Z,0.50
2023-03-28T11:47:26.574Z,0.50
2023-03-28T11:48:26.733Z,0.60
2023-03-28T11:49:26.580Z,0.60
2023-03-28T11:50:26.460Z,0.60
2023-03-28T11:51:26.608Z,0.60
2023-03-28T11:52:26.449Z,0.70
2023-03-28T11:53:26.480Z,0.60
2023-03-28T11:54:26.402Z,0.50
2023-03-28T11:55:26.500Z,0.90
2023-03-28T11:56:26.371Z,0.80
2023-03-28T11:57:26.567Z,0.80
2023-03-28T11:58:26.371Z,0.70
2023-03-28T11:59:26.462Z,0.50
2023-03-28T12:00:33.809Z,0.60
2023-03-28T12:01:27.353Z,0.60
2023-03-28T12:02:26.392Z,0.50
2023-03-28T12:03:26.412Z,0.70
2023-03-28T12:04:26.495Z,0.90
2023-03-28T12:05:26.237Z,1.80
2023-03-28T12:06:26.272Z,4.00
2023-03-28T12:07:26.231Z,1.50
2023-03-28T12:08:26.288Z,1.50
2023-03-28T12:09:26.210Z,0.80
2023-03-28T12:10:26.293Z,0.80
2023-03-28T12:11:26.178Z,0.60
2023-03-28T12:12:26.400Z,0.50
2023-03-28T12:13:26.178Z,0.40
2023-03-28T12:14:26.233Z,0.40
2023-03-28T12:15:26.141Z,0.50
2023-03-28T12:16:26.196Z,0.50
2023-03-28T12:17:26.103Z,0.40
2023-03-28T12:18:26.147Z,0.60
2023-03-28T12:19:26.064Z,0.50
2023-03-28T12:20:26.163Z,0.70
2023-03-28T12:21:26.055Z,0.50
2023-03-28T12:22:26.082Z,0.50
2023-03-28T12:23:26.010Z,0.50
2023-03-28T12:24:26.108Z,0.40
2023-03-28T12:25:25.985Z,0.60
2023-03-28T12:26:26.022Z,0.60
2023-03-28T12:27:26.017Z,0.50
2023-03-28T12:28:26.013Z,0.60
2023-03-28T12:29:25.935Z,0.60
2023-03-28T12:30:25.954Z,0.60
2023-03-28T12:31:25.969Z,0.80
2023-03-28T12:32:26.134Z,0.60
2023-03-28T12:33:25.919Z,0.70
2023-03-28T12:34:25.959Z,0.70
2023-03-28T12:35:25.875Z,0.40
2023-03-28T12:36:25.873Z,0.60
2023-03-28T12:37:25.835Z,0.60
2023-03-28T12:38:25.885Z,0.60
2023-03-28T12:39:25.841Z,0.60
2023-03-28T12:40:27.900Z,0.70
2023-03-28T12:41:25.776Z,0.60
2023-03-28T12:42:25.819Z,0.60
2023-03-28T12:43:25.744Z,0.60
2023-03-28T12:44:25.843Z,0.60
2023-03-28T12:45:25.743Z,0.70
2023-03-28T12:46:25.755Z,0.70
2023-03-28T12:47:25.724Z,0.60
2023-03-28T12:48:25.753Z,0.60
2023-03-28T12:49:25.674Z,0.70
2023-03-28T12:50:25.793Z,0.60
2023-03-28T12:51:25.652Z,0.60
2023-03-28T12:52:25.680Z,0.60
2023-03-28T12:53:25.613Z,0.60
2023-03-28T12:54:25.693Z,0.60
2023-03-28T12:55:25.594Z,0.80
2023-03-28T12:56:25.604Z,0.70
2023-03-28T12:58:25.578Z,0.60
2023-03-28T12:59:25.625Z,0.50
2023-03-28T13:00:25.529Z,0.50
2023-03-28T13:01:25.561Z,0.40
2023-03-28T13:02:25.574Z,0.50
2023-03-28T13:03:29.803Z,0.40
2023-03-28T13:04:25.533Z,0.60
2023-03-28T13:05:25.574Z,0.40
2023-03-28T13:06:25.461Z,0.50
2023-03-28T13:07:25.504Z,0.40
2023-03-28T13:08:25.430Z,0.60
2023-03-28T13:09:25.458Z,0.70
2023-03-28T13:10:25.392Z,0.70
2023-03-28T13:11:25.406Z,0.60
2023-03-28T13:12:25.370Z,0.60
2023-03-28T13:13:25.457Z,0.70
2023-03-28T13:14:25.344Z,0.50
2023-03-28T13:15:25.388Z,0.60
2023-03-28T13:16:25.402Z,0.80
2023-03-28T13:17:25.524Z,0.60
2023-03-28T13:18:25.294Z,0.60
2023-03-28T13:19:25.470Z,0.50